sensor_id;sensor_type;location;lat;lon;timestamp;P1;durP1;ratioP1;P2;durP2;ratioP2
36585;SDS011;22591;48.314;11.562;2022-11-15T00:01:39;14.23;;;12.63;;
36585;SDS011;22591;48.314;11.562;2022-11-15T00:04:05;14.90;;;12.25;;
36585;SDS011;22591;48.314;11.562;2022-11-15T00:06:31;17.77;;;14.98;;
36585;SDS011;22591;48.314;11.562;2022-11-15T00:08:57;17.98;;;15.40;;
36585;SDS011;22591;48.314;11.562;2022-11-15T00:11:24;18.25;;;15.73;;
36585;SDS011;22591;48.314;11.562;2022-11-15T00:13:49;16.30;;;13.23;;
36585;SDS011;22591;48.314;11.562;2022-11-15T00:16:15;17.38;;;14.50;;
36585;SDS011;22591;48.314;11.562;2022-11-15T00:18:40;15.27;;;13.68;;
36585;SDS011;22591;48.314;11.562;2022-11-15T00:21:07;17.55;;;15.55;;
36585;SDS011;22591;48.314;11.562;2022-11-15T00:23:35;16.15;;;14.52;;
36585;SDS011;22591;48.314;11.562;2022-11-15T00:26:01;18.50;;;14.50;;
36585;SDS011;22591;48.314;11.562;2022-11-15T00:28:27;14.30;;;12.80;;
36585;SDS011;22591;48.314;11.562;2022-11-15T00:30:52;20.15;;;14.30;;
36585;SDS011;22591;48.314;11.562;2022-11-15T00:33:18;16.63;;;14.15;;
36585;SDS011;22591;48.314;11.562;2022-11-15T00:35:44;15.70;;;13.70;;
36585;SDS011;22591;48.314;11.562;2022-11-15T00:38:09;17.17;;;14.40;;
36585;SDS011;22591;48.314;11.562;2022-11-15T00:40:35;16.38;;;14.60;;
36585;SDS011;22591;48.314;11.562;2022-11-15T00:43:00;23.40;;;17.98;;
36585;SDS011;22591;48.314;11.562;2022-11-15T00:45:26;17.70;;;15.23;;
36585;SDS011;22591;48.314;11.562;2022-11-15T00:47:51;15.52;;;13.88;;
36585;SDS011;22591;48.314;11.562;2022-11-15T00:50:17;17.13;;;12.88;;
36585;SDS011;22591;48.314;11.562;2022-11-15T00:52:44;18.42;;;13.73;;
36585;SDS011;22591;48.314;11.562;2022-11-15T00:55:13;14.00;;;12.50;;
36585;SDS011;22591;48.314;11.562;2022-11-15T00:57:40;15.70;;;13.77;;
36585;SDS011;22591;48.314;11.562;2022-11-15T01:00:06;16.02;;;13.25;;
36585;SDS011;22591;48.314;11.562;2022-11-15T01:02:32;16.27;;;14.10;;
36585;SDS011;22591;48.314;11.562;2022-11-15T01:04:57;16.25;;;13.68;;
36585;SDS011;22591;48.314;11.562;2022-11-15T01:07:23;18.08;;;16.00;;
36585;SDS011;22591;48.314;11.562;2022-11-15T01:09:48;17.00;;;14.82;;
36585;SDS011;22591;48.314;11.562;2022-11-15T01:12:14;14.48;;;13.00;;
36585;SDS011;22591;48.314;11.562;2022-11-15T01:14:39;15.05;;;13.45;;
36585;SDS011;22591;48.314;11.562;2022-11-15T01:17:05;15.52;;;14.05;;
36585;SDS011;22591;48.314;11.562;2022-11-15T01:19:30;16.13;;;13.43;;
36585;SDS011;22591;48.314;11.562;2022-11-15T01:21:56;13.68;;;12.00;;
36585;SDS011;22591;48.314;11.562;2022-11-15T01:24:21;13.85;;;12.43;;
36585;SDS011;22591;48.314;11.562;2022-11-15T01:26:47;15.88;;;14.25;;
36585;SDS011;22591;48.314;11.562;2022-11-15T01:29:13;15.00;;;13.27;;
36585;SDS011;22591;48.314;11.562;2022-11-15T01:31:38;16.15;;;13.25;;
36585;SDS011;22591;48.314;11.562;2022-11-15T01:34:04;15.85;;;14.23;;
36585;SDS011;22591;48.314;11.562;2022-11-15T01:36:29;14.27;;;12.40;;
36585;SDS011;22591;48.314;11.562;2022-11-15T01:38:58;11.95;;;10.63;;
36585;SDS011;22591;48.314;11.562;2022-11-15T01:41:25;14.80;;;11.98;;
36585;SDS011;22591;48.314;11.562;2022-11-15T01:43:53;13.85;;;12.15;;
36585;SDS011;22591;48.314;11.562;2022-11-15T01:48:46;15.02;;;12.10;;
36585;SDS011;22591;48.314;11.562;2022-11-15T01:51:13;12.70;;;11.50;;
36585;SDS011;22591;48.314;11.562;2022-11-15T01:53:41;14.48;;;13.18;;
36585;SDS011;22591;48.314;11.562;2022-11-15T01:56:10;13.85;;;12.45;;
36585;SDS011;22591;48.314;11.562;2022-11-15T01:58:38;16.88;;;13.70;;
36585;SDS011;22591;48.314;11.562;2022-11-15T02:01:05;15.13;;;13.15;;
36585;SDS011;22591;48.314;11.562;2022-11-15T02:03:34;14.98;;;13.40;;
36585;SDS011;22591;48.314;11.562;2022-11-15T02:06:09;13.23;;;11.93;;
36585;SDS011;22591;48.314;11.562;2022-11-15T02:08:35;17.10;;;13.40;;
36585;SDS011;22591;48.314;11.562;2022-11-15T02:11:00;15.25;;;13.45;;
36585;SDS011;22591;48.314;11.562;2022-11-15T02:13:26;16.63;;;14.82;;
36585;SDS011;22591;48.314;11.562;2022-11-15T02:18:47;18.58;;;15.73;;
36585;SDS011;22591;48.314;11.562;2022-11-15T02:21:34;17.75;;;15.18;;
36585;SDS011;22591;48.314;11.562;2022-11-15T02:24:25;17.42;;;14.13;;
36585;SDS011;22591;48.314;11.562;2022-11-15T02:41:04;17.88;;;15.13;;
36585;SDS011;22591;48.314;11.562;2022-11-15T02:43:37;19.05;;;16.30;;
36585;SDS011;22591;48.314;11.562;2022-11-15T02:49:37;16.27;;;14.25;;
36585;SDS011;22591;48.314;11.562;2022-11-15T02:52:04;18.48;;;16.15;;
36585;SDS011;22591;48.314;11.562;2022-11-15T02:54:31;20.02;;;17.70;;
36585;SDS011;22591;48.314;11.562;2022-11-15T02:57:00;16.42;;;14.68;;
36585;SDS011;22591;48.314;11.562;2022-11-15T02:59:46;17.65;;;15.68;;
36585;SDS011;22591;48.314;11.562;2022-11-15T03:02:28;15.75;;;14.05;;
36585;SDS011;22591;48.314;11.562;2022-11-15T03:05:19;15.38;;;13.80;;
36585;SDS011;22591;48.314;11.562;2022-11-15T03:10:46;16.70;;;13.32;;
36585;SDS011;22591;48.314;11.562;2022-11-15T03:13:27;15.25;;;13.85;;
36585;SDS011;22591;48.314;11.562;2022-11-15T03:16:16;14.23;;;12.38;;
36585;SDS011;22591;48.314;11.562;2022-11-15T03:18:47;14.65;;;13.05;;
36585;SDS011;22591;48.314;11.562;2022-11-15T03:21:18;15.25;;;13.73;;
36585;SDS011;22591;48.314;11.562;2022-11-15T03:23:46;15.18;;;13.63;;
36585;SDS011;22591;48.314;11.562;2022-11-15T03:26:13;15.60;;;13.93;;
36585;SDS011;22591;48.314;11.562;2022-11-15T03:31:17;15.85;;;13.73;;
36585;SDS011;22591;48.314;11.562;2022-11-15T03:34:05;14.90;;;13.40;;
36585;SDS011;22591;48.314;11.562;2022-11-15T03:36:35;15.63;;;13.32;;
36585;SDS011;22591;48.314;11.562;2022-11-15T03:39:02;14.52;;;12.40;;
36585;SDS011;22591;48.314;11.562;2022-11-15T03:41:35;15.93;;;14.10;;
36585;SDS011;22591;48.314;11.562;2022-11-15T03:44:15;16.73;;;13.65;;
36585;SDS011;22591;48.314;11.562;2022-11-15T03:49:35;17.35;;;13.82;;
36585;SDS011;22591;48.314;11.562;2022-11-15T03:52:04;18.98;;;14.10;;
36585;SDS011;22591;48.314;11.562;2022-11-15T03:54:30;19.60;;;15.15;;
36585;SDS011;22591;48.314;11.562;2022-11-15T03:56:56;18.83;;;15.88;;
36585;SDS011;22591;48.314;11.562;2022-11-15T03:59:21;19.25;;;16.02;;
36585;SDS011;22591;48.314;11.562;2022-11-15T04:01:47;17.48;;;14.45;;
36585;SDS011;22591;48.314;11.562;2022-11-15T04:04:13;16.42;;;12.50;;
36585;SDS011;22591;48.314;11.562;2022-11-15T04:06:38;16.27;;;13.48;;
36585;SDS011;22591;48.314;11.562;2022-11-15T04:09:04;11.00;;;9.93;;
36585;SDS011;22591;48.314;11.562;2022-11-15T04:11:29;11.15;;;10.05;;
36585;SDS011;22591;48.314;11.562;2022-11-15T04:13:55;11.25;;;10.15;;
36585;SDS011;22591;48.314;11.562;2022-11-15T04:16:20;13.68;;;12.27;;
36585;SDS011;22591;48.314;11.562;2022-11-15T04:18:46;14.75;;;12.25;;
36585;SDS011;22591;48.314;11.562;2022-11-15T04:21:31;11.88;;;10.68;;
36585;SDS011;22591;48.314;11.562;2022-11-15T04:24:15;12.00;;;10.90;;
36585;SDS011;22591;48.314;11.562;2022-11-15T04:26:41;15.07;;;12.05;;
36585;SDS011;22591;48.314;11.562;2022-11-15T04:29:07;13.00;;;11.63;;
36585;SDS011;22591;48.314;11.562;2022-11-15T04:31:51;13.32;;;11.90;;
36585;SDS011;22591;48.314;11.562;2022-11-15T04:34:16;10.52;;;9.38;;
36585;SDS011;22591;48.314;11.562;2022-11-15T04:36:42;12.30;;;11.18;;
36585;SDS011;22591;48.314;11.562;2022-11-15T04:39:26;13.07;;;10.40;;
36585;SDS011;22591;48.314;11.562;2022-11-15T04:41:51;12.18;;;10.98;;
36585;SDS011;22591;48.314;11.562;2022-11-15T04:44:17;11.43;;;10.32;;
36585;SDS011;22591;48.314;11.562;2022-11-15T04:46:42;15.05;;;11.68;;
36585;SDS011;22591;48.314;11.562;2022-11-15T04:49:08;12.10;;;10.90;;
36585;SDS011;22591;48.314;11.562;2022-11-15T04:51:33;12.55;;;11.35;;
36585;SDS011;22591;48.314;11.562;2022-11-15T04:53:59;12.95;;;11.65;;
36585;SDS011;22591;48.314;11.562;2022-11-15T04:56:25;12.48;;;11.20;;
36585;SDS011;22591;48.314;11.562;2022-11-15T04:58:50;10.98;;;9.98;;
36585;SDS011;22591;48.314;11.562;2022-11-15T05:01:16;10.90;;;9.80;;
36585;SDS011;22591;48.314;11.562;2022-11-15T05:03:41;10.60;;;9.57;;
36585;SDS011;22591;48.314;11.562;2022-11-15T05:06:26;12.50;;;9.20;;
36585;SDS011;22591;48.314;11.562;2022-11-15T05:08:51;12.35;;;11.15;;
36585;SDS011;22591;48.314;11.562;2022-11-15T05:11:17;9.95;;;9.15;;
36585;SDS011;22591;48.314;11.562;2022-11-15T05:13:43;10.30;;;9.40;;
36585;SDS011;22591;48.314;11.562;2022-11-15T05:16:08;9.88;;;8.98;;
36585;SDS011;22591;48.314;11.562;2022-11-15T05:18:34;11.60;;;10.55;;
36585;SDS011;22591;48.314;11.562;2022-11-15T05:21:06;11.15;;;10.15;;
36585;SDS011;22591;48.314;11.562;2022-11-15T05:23:34;11.23;;;10.05;;
36585;SDS011;22591;48.314;11.562;2022-11-15T05:26:00;9.60;;;8.70;;
36585;SDS011;22591;48.314;11.562;2022-11-15T05:28:26;10.25;;;9.32;;
36585;SDS011;22591;48.314;11.562;2022-11-15T05:30:52;10.13;;;9.00;;
36585;SDS011;22591;48.314;11.562;2022-11-15T05:33:17;10.30;;;9.27;;
36585;SDS011;22591;48.314;11.562;2022-11-15T05:35:46;12.18;;;10.95;;
36585;SDS011;22591;48.314;11.562;2022-11-15T05:38:19;12.27;;;11.10;;
36585;SDS011;22591;48.314;11.562;2022-11-15T05:40:45;12.20;;;10.98;;
36585;SDS011;22591;48.314;11.562;2022-11-15T05:43:10;13.18;;;11.18;;
36585;SDS011;22591;48.314;11.562;2022-11-15T05:45:36;11.00;;;9.90;;
36585;SDS011;22591;48.314;11.562;2022-11-15T05:48:03;10.88;;;9.68;;
36585;SDS011;22591;48.314;11.562;2022-11-15T05:50:31;12.82;;;11.00;;
36585;SDS011;22591;48.314;11.562;2022-11-15T05:52:58;13.23;;;11.90;;
36585;SDS011;22591;48.314;11.562;2022-11-15T05:55:24;14.02;;;12.52;;
36585;SDS011;22591;48.314;11.562;2022-11-15T05:57:49;14.73;;;13.23;;
36585;SDS011;22591;48.314;11.562;2022-11-15T06:00:15;14.73;;;11.95;;
36585;SDS011;22591;48.314;11.562;2022-11-15T06:02:41;15.60;;;13.95;;
36585;SDS011;22591;48.314;11.562;2022-11-15T06:05:07;16.67;;;12.38;;
36585;SDS011;22591;48.314;11.562;2022-11-15T06:07:32;13.05;;;11.48;;
36585;SDS011;22591;48.314;11.562;2022-11-15T06:09:58;15.65;;;10.70;;
36585;SDS011;22591;48.314;11.562;2022-11-15T06:12:23;12.77;;;11.45;;
36585;SDS011;22591;48.314;11.562;2022-11-15T06:14:49;12.02;;;10.82;;
36585;SDS011;22591;48.314;11.562;2022-11-15T06:17:14;11.90;;;10.70;;
36585;SDS011;22591;48.314;11.562;2022-11-15T06:19:40;12.35;;;11.15;;
36585;SDS011;22591;48.314;11.562;2022-11-15T06:22:05;13.82;;;9.65;;
36585;SDS011;22591;48.314;11.562;2022-11-15T06:24:31;12.65;;;10.73;;
36585;SDS011;22591;48.314;11.562;2022-11-15T06:26:57;11.93;;;10.82;;
36585;SDS011;22591;48.314;11.562;2022-11-15T06:29:22;12.25;;;10.95;;
36585;SDS011;22591;48.314;11.562;2022-11-15T06:31:48;11.18;;;10.18;;
36585;SDS011;22591;48.314;11.562;2022-11-15T06:34:14;12.05;;;10.70;;
36585;SDS011;22591;48.314;11.562;2022-11-15T06:36:39;11.48;;;10.35;;
36585;SDS011;22591;48.314;11.562;2022-11-15T06:39:05;13.25;;;10.15;;
36585;SDS011;22591;48.314;11.562;2022-11-15T06:41:33;11.35;;;10.23;;
36585;SDS011;22591;48.314;11.562;2022-11-15T06:43:59;11.45;;;10.25;;
36585;SDS011;22591;48.314;11.562;2022-11-15T06:46:25;12.38;;;11.13;;
36585;SDS011;22591;48.314;11.562;2022-11-15T06:48:51;12.90;;;11.52;;
36585;SDS011;22591;48.314;11.562;2022-11-15T06:51:17;10.70;;;9.70;;
36585;SDS011;22591;48.314;11.562;2022-11-15T06:53:43;11.82;;;10.68;;
36585;SDS011;22591;48.314;11.562;2022-11-15T06:56:09;12.93;;;10.98;;
36585;SDS011;22591;48.314;11.562;2022-11-15T06:58:35;12.13;;;10.90;;
36585;SDS011;22591;48.314;11.562;2022-11-15T07:01:01;13.20;;;11.88;;
36585;SDS011;22591;48.314;11.562;2022-11-15T07:03:30;13.73;;;11.57;;
36585;SDS011;22591;48.314;11.562;2022-11-15T07:05:57;14.68;;;12.55;;
36585;SDS011;22591;48.314;11.562;2022-11-15T07:08:23;20.38;;;14.60;;
36585;SDS011;22591;48.314;11.562;2022-11-15T07:10:51;17.70;;;13.82;;
36585;SDS011;22591;48.314;11.562;2022-11-15T07:13:17;14.73;;;13.00;;
36585;SDS011;22591;48.314;11.562;2022-11-15T07:15:42;14.85;;;12.65;;
36585;SDS011;22591;48.314;11.562;2022-11-15T07:18:08;13.93;;;12.57;;
36585;SDS011;22591;48.314;11.562;2022-11-15T07:20:34;15.30;;;13.38;;
36585;SDS011;22591;48.314;11.562;2022-11-15T07:23:03;13.35;;;11.68;;
36585;SDS011;22591;48.314;11.562;2022-11-15T07:25:30;12.48;;;11.20;;
36585;SDS011;22591;48.314;11.562;2022-11-15T07:27:56;13.75;;;11.48;;
36585;SDS011;22591;48.314;11.562;2022-11-15T07:30:22;12.35;;;11.15;;
36585;SDS011;22591;48.314;11.562;2022-11-15T07:32:53;13.70;;;12.30;;
36585;SDS011;22591;48.314;11.562;2022-11-15T07:35:19;13.27;;;11.65;;
36585;SDS011;22591;48.314;11.562;2022-11-15T07:37:52;17.33;;;11.98;;
36585;SDS011;22591;48.314;11.562;2022-11-15T07:40:18;13.10;;;11.05;;
36585;SDS011;22591;48.314;11.562;2022-11-15T07:42:44;12.77;;;11.57;;
36585;SDS011;22591;48.314;11.562;2022-11-15T07:45:21;12.18;;;11.07;;
36585;SDS011;22591;48.314;11.562;2022-11-15T07:47:50;11.95;;;10.93;;
36585;SDS011;22591;48.314;11.562;2022-11-15T07:50:16;11.05;;;10.07;;
36585;SDS011;22591;48.314;11.562;2022-11-15T07:52:42;10.75;;;9.65;;
36585;SDS011;22591;48.314;11.562;2022-11-15T07:55:08;12.57;;;11.18;;
36585;SDS011;22591;48.314;11.562;2022-11-15T07:57:35;11.68;;;10.50;;
36585;SDS011;22591;48.314;11.562;2022-11-15T08:00:00;10.10;;;9.13;;
36585;SDS011;22591;48.314;11.562;2022-11-15T08:02:27;10.07;;;8.85;;
36585;SDS011;22591;48.314;11.562;2022-11-15T08:04:53;8.95;;;8.15;;
36585;SDS011;22591;48.314;11.562;2022-11-15T08:07:18;8.43;;;7.72;;
36585;SDS011;22591;48.314;11.562;2022-11-15T08:09:44;8.65;;;8.00;;
36585;SDS011;22591;48.314;11.562;2022-11-15T08:12:09;7.80;;;7.20;;
36585;SDS011;22591;48.314;11.562;2022-11-15T08:14:35;8.45;;;7.72;;
36585;SDS011;22591;48.314;11.562;2022-11-15T08:17:00;8.90;;;7.53;;
36585;SDS011;22591;48.314;11.562;2022-11-15T08:19:26;9.85;;;7.53;;
36585;SDS011;22591;48.314;11.562;2022-11-15T08:21:52;8.40;;;7.80;;
36585;SDS011;22591;48.314;11.562;2022-11-15T08:24:17;8.45;;;7.57;;
36585;SDS011;22591;48.314;11.562;2022-11-15T08:26:43;8.48;;;7.53;;
36585;SDS011;22591;48.314;11.562;2022-11-15T08:29:08;8.38;;;7.68;;
36585;SDS011;22591;48.314;11.562;2022-11-15T08:31:34;8.45;;;7.65;;
36585;SDS011;22591;48.314;11.562;2022-11-15T08:34:04;8.80;;;7.38;;
36585;SDS011;22591;48.314;11.562;2022-11-15T08:36:30;8.63;;;7.82;;
36585;SDS011;22591;48.314;11.562;2022-11-15T08:38:56;8.38;;;7.68;;
36585;SDS011;22591;48.314;11.562;2022-11-15T08:41:26;8.68;;;7.88;;
36585;SDS011;22591;48.314;11.562;2022-11-15T08:43:57;8.63;;;7.82;;
36585;SDS011;22591;48.314;11.562;2022-11-15T08:46:22;8.93;;;8.10;;
36585;SDS011;22591;48.314;11.562;2022-11-15T08:48:48;9.02;;;6.63;;
36585;SDS011;22591;48.314;11.562;2022-11-15T08:51:14;7.55;;;6.93;;
36585;SDS011;22591;48.314;11.562;2022-11-15T08:53:40;10.25;;;7.45;;
36585;SDS011;22591;48.314;11.562;2022-11-15T08:56:10;7.15;;;6.45;;
36585;SDS011;22591;48.314;11.562;2022-11-15T08:58:36;7.90;;;7.30;;
36585;SDS011;22591;48.314;11.562;2022-11-15T09:01:02;8.30;;;7.60;;
36585;SDS011;22591;48.314;11.562;2022-11-15T09:03:28;9.10;;;8.35;;
36585;SDS011;22591;48.314;11.562;2022-11-15T09:05:57;9.23;;;7.90;;
36585;SDS011;22591;48.314;11.562;2022-11-15T09:08:25;9.00;;;8.30;;
36585;SDS011;22591;48.314;11.562;2022-11-15T09:10:54;7.47;;;6.88;;
36585;SDS011;22591;48.314;11.562;2022-11-15T09:13:19;7.75;;;7.15;;
36585;SDS011;22591;48.314;11.562;2022-11-15T09:15:45;7.95;;;7.25;;
36585;SDS011;22591;48.314;11.562;2022-11-15T09:18:11;9.18;;;8.27;;
36585;SDS011;22591;48.314;11.562;2022-11-15T09:20:36;8.25;;;7.38;;
36585;SDS011;22591;48.314;11.562;2022-11-15T09:23:02;7.90;;;7.20;;
36585;SDS011;22591;48.314;11.562;2022-11-15T09:25:29;6.88;;;6.20;;
36585;SDS011;22591;48.314;11.562;2022-11-15T09:27:55;8.52;;;7.80;;
36585;SDS011;22591;48.314;11.562;2022-11-15T09:30:21;7.82;;;7.13;;
36585;SDS011;22591;48.314;11.562;2022-11-15T09:32:48;8.38;;;7.70;;
36585;SDS011;22591;48.314;11.562;2022-11-15T09:35:13;8.13;;;7.07;;
36585;SDS011;22591;48.314;11.562;2022-11-15T09:37:39;6.63;;;6.13;;
36585;SDS011;22591;48.314;11.562;2022-11-15T09:40:05;7.22;;;6.57;;
36585;SDS011;22591;48.314;11.562;2022-11-15T09:42:39;7.00;;;6.40;;
36585;SDS011;22591;48.314;11.562;2022-11-15T09:50:49;7.65;;;6.95;;
36585;SDS011;22591;48.314;11.562;2022-11-15T09:53:29;7.50;;;6.95;;
36585;SDS011;22591;48.314;11.562;2022-11-15T09:56:03;7.47;;;6.40;;
36585;SDS011;22591;48.314;11.562;2022-11-15T10:01:36;6.63;;;6.13;;
36585;SDS011;22591;48.314;11.562;2022-11-15T10:04:08;7.07;;;6.07;;
36585;SDS011;22591;48.314;11.562;2022-11-15T10:06:34;6.60;;;6.00;;
36585;SDS011;22591;48.314;11.562;2022-11-15T10:11:41;6.18;;;5.60;;
36585;SDS011;22591;48.314;11.562;2022-11-15T10:14:15;8.18;;;6.32;;
36585;SDS011;22591;48.314;11.562;2022-11-15T10:27:34;5.43;;;5.03;;
36585;SDS011;22591;48.314;11.562;2022-11-15T10:30:00;5.72;;;5.30;;
36585;SDS011;22591;48.314;11.562;2022-11-15T10:32:26;6.38;;;5.63;;
36585;SDS011;22591;48.314;11.562;2022-11-15T10:34:52;10.40;;;5.35;;
36585;SDS011;22591;48.314;11.562;2022-11-15T10:37:35;5.20;;;4.80;;
36585;SDS011;22591;48.314;11.562;2022-11-15T10:40:05;5.68;;;5.13;;
36585;SDS011;22591;48.314;11.562;2022-11-15T10:42:39;4.82;;;4.43;;
36585;SDS011;22591;48.314;11.562;2022-11-15T10:45:22;4.78;;;4.38;;
36585;SDS011;22591;48.314;11.562;2022-11-15T10:47:52;4.63;;;4.25;;
36585;SDS011;22591;48.314;11.562;2022-11-15T10:50:29;4.95;;;4.65;;
36585;SDS011;22591;48.314;11.562;2022-11-15T10:52:56;4.53;;;4.22;;
36585;SDS011;22591;48.314;11.562;2022-11-15T10:55:27;4.97;;;4.68;;
36585;SDS011;22591;48.314;11.562;2022-11-15T10:58:39;4.88;;;4.55;;
36585;SDS011;22591;48.314;11.562;2022-11-15T11:01:05;5.15;;;4.60;;
36585;SDS011;22591;48.314;11.562;2022-11-15T11:03:35;5.32;;;4.93;;
36585;SDS011;22591;48.314;11.562;2022-11-15T11:08:38;4.80;;;4.40;;
36585;SDS011;22591;48.314;11.562;2022-11-15T11:11:04;5.47;;;5.07;;
36585;SDS011;22591;48.314;11.562;2022-11-15T11:24:21;5.88;;;5.38;;
36585;SDS011;22591;48.314;11.562;2022-11-15T11:29:29;5.28;;;4.97;;
36585;SDS011;22591;48.314;11.562;2022-11-15T11:34:57;6.53;;;5.50;;
36585;SDS011;22591;48.314;11.562;2022-11-15T11:37:43;5.90;;;5.38;;
36585;SDS011;22591;48.314;11.562;2022-11-15T11:40:34;6.65;;;6.15;;
36585;SDS011;22591;48.314;11.562;2022-11-15T11:43:22;6.50;;;5.72;;
36585;SDS011;22591;48.314;11.562;2022-11-15T11:52:03;7.32;;;6.82;;
36585;SDS011;22591;48.314;11.562;2022-11-15T11:54:33;6.95;;;6.45;;
36585;SDS011;22591;48.314;11.562;2022-11-15T11:57:15;7.30;;;6.72;;
36585;SDS011;22591;48.314;11.562;2022-11-15T11:59:50;8.40;;;7.38;;
36585;SDS011;22591;48.314;11.562;2022-11-15T12:02:35;7.13;;;6.50;;
36585;SDS011;22591;48.314;11.562;2022-11-15T12:05:27;7.55;;;6.95;;
36585;SDS011;22591;48.314;11.562;2022-11-15T12:07:58;6.88;;;6.38;;
36585;SDS011;22591;48.314;11.562;2022-11-15T12:10:29;6.28;;;5.88;;
36585;SDS011;22591;48.314;11.562;2022-11-15T12:13:01;7.18;;;6.57;;
36585;SDS011;22591;48.314;11.562;2022-11-15T12:15:32;6.97;;;6.47;;
36585;SDS011;22591;48.314;11.562;2022-11-15T12:18:04;8.55;;;7.55;;
36585;SDS011;22591;48.314;11.562;2022-11-15T12:20:32;6.68;;;6.15;;
36585;SDS011;22591;48.314;11.562;2022-11-15T12:25:49;6.70;;;6.30;;
36585;SDS011;22591;48.314;11.562;2022-11-15T12:31:09;6.65;;;6.18;;
36585;SDS011;22591;48.314;11.562;2022-11-15T12:33:42;7.80;;;6.10;;
36585;SDS011;22591;48.314;11.562;2022-11-15T12:36:10;7.05;;;6.32;;
36585;SDS011;22591;48.314;11.562;2022-11-15T12:39:01;6.35;;;5.93;;
36585;SDS011;22591;48.314;11.562;2022-11-15T12:41:31;6.45;;;5.65;;
36585;SDS011;22591;48.314;11.562;2022-11-15T12:44:01;6.27;;;5.73;;
36585;SDS011;22591;48.314;11.562;2022-11-15T12:48:57;6.20;;;5.70;;
36585;SDS011;22591;48.314;11.562;2022-11-15T13:02:18;7.30;;;6.78;;
36585;SDS011;22591;48.314;11.562;2022-11-15T13:04:50;6.60;;;5.93;;
36585;SDS011;22591;48.314;11.562;2022-11-15T13:10:00;6.18;;;5.57;;
36585;SDS011;22591;48.314;11.562;2022-11-15T13:15:34;7.07;;;6.47;;
36585;SDS011;22591;48.314;11.562;2022-11-15T13:18:18;7.47;;;6.95;;
36585;SDS011;22591;48.314;11.562;2022-11-15T13:20:59;7.40;;;6.80;;
36585;SDS011;22591;48.314;11.562;2022-11-15T13:23:25;8.90;;;6.90;;
36585;SDS011;22591;48.314;11.562;2022-11-15T13:31:02;8.93;;;7.07;;
36585;SDS011;22591;48.314;11.562;2022-11-15T13:33:39;7.72;;;6.22;;
36585;SDS011;22591;48.314;11.562;2022-11-15T13:36:06;7.15;;;6.47;;
36585;SDS011;22591;48.314;11.562;2022-11-15T13:38:54;6.53;;;6.03;;
36585;SDS011;22591;48.314;11.562;2022-11-15T13:41:23;6.85;;;6.25;;
36585;SDS011;22591;48.314;11.562;2022-11-15T13:43:51;6.13;;;5.72;;
36585;SDS011;22591;48.314;11.562;2022-11-15T13:46:21;6.20;;;5.75;;
36585;SDS011;22591;48.314;11.562;2022-11-15T13:48:56;9.18;;;6.70;;
36585;SDS011;22591;48.314;11.562;2022-11-15T13:51:29;8.13;;;6.60;;
36585;SDS011;22591;48.314;11.562;2022-11-15T13:54:00;6.88;;;6.28;;
36585;SDS011;22591;48.314;11.562;2022-11-15T13:56:56;6.80;;;6.30;;
36585;SDS011;22591;48.314;11.562;2022-11-15T14:01:51;8.10;;;7.30;;
36585;SDS011;22591;48.314;11.562;2022-11-15T14:04:21;7.70;;;6.95;;
36585;SDS011;22591;48.314;11.562;2022-11-15T14:06:51;7.05;;;6.03;;
36585;SDS011;22591;48.314;11.562;2022-11-15T14:12:00;7.40;;;6.65;;
36585;SDS011;22591;48.314;11.562;2022-11-15T14:14:28;8.68;;;6.30;;
36585;SDS011;22591;48.314;11.562;2022-11-15T14:16:58;6.90;;;6.30;;
36585;SDS011;22591;48.314;11.562;2022-11-15T14:24:35;6.50;;;6.00;;
36585;SDS011;22591;48.314;11.562;2022-11-15T14:27:18;7.65;;;6.43;;
36585;SDS011;22591;48.314;11.562;2022-11-15T14:29:48;6.53;;;5.95;;
36585;SDS011;22591;48.314;11.562;2022-11-15T14:32:17;6.30;;;5.88;;
36585;SDS011;22591;48.314;11.562;2022-11-15T14:34:45;5.73;;;5.33;;
36585;SDS011;22591;48.314;11.562;2022-11-15T14:37:26;5.97;;;5.57;;
36585;SDS011;22591;48.314;11.562;2022-11-15T14:39:59;6.68;;;5.80;;
36585;SDS011;22591;48.314;11.562;2022-11-15T14:42:27;5.80;;;5.30;;
36585;SDS011;22591;48.314;11.562;2022-11-15T14:44:52;5.55;;;4.88;;
36585;SDS011;22591;48.314;11.562;2022-11-15T14:47:18;7.85;;;4.68;;
36585;SDS011;22591;48.314;11.562;2022-11-15T14:49:44;6.28;;;5.63;;
36585;SDS011;22591;48.314;11.562;2022-11-15T14:52:26;7.68;;;7.07;;
36585;SDS011;22591;48.314;11.562;2022-11-15T14:54:59;12.85;;;8.55;;
36585;SDS011;22591;48.314;11.562;2022-11-15T14:57:27;9.10;;;8.32;;
36585;SDS011;22591;48.314;11.562;2022-11-15T14:59:53;9.00;;;8.10;;
36585;SDS011;22591;48.314;11.562;2022-11-15T15:02:19;11.18;;;9.55;;
36585;SDS011;22591;48.314;11.562;2022-11-15T15:04:47;10.23;;;9.27;;
36585;SDS011;22591;48.314;11.562;2022-11-15T15:07:13;9.73;;;8.85;;
36585;SDS011;22591;48.314;11.562;2022-11-15T15:09:39;12.85;;;9.43;;
36585;SDS011;22591;48.314;11.562;2022-11-15T15:12:05;11.43;;;9.23;;
36585;SDS011;22591;48.314;11.562;2022-11-15T15:14:41;9.40;;;8.60;;
36585;SDS011;22591;48.314;11.562;2022-11-15T15:17:06;9.13;;;8.43;;
36585;SDS011;22591;48.314;11.562;2022-11-15T15:19:32;12.02;;;9.52;;
36585;SDS011;22591;48.314;11.562;2022-11-15T15:21:57;10.68;;;9.63;;
36585;SDS011;22591;48.314;11.562;2022-11-15T15:24:23;10.02;;;9.00;;
36585;SDS011;22591;48.314;11.562;2022-11-15T15:26:48;10.20;;;9.23;;
36585;SDS011;22591;48.314;11.562;2022-11-15T15:29:14;12.55;;;9.15;;
36585;SDS011;22591;48.314;11.562;2022-11-15T15:31:40;10.32;;;9.35;;
36585;SDS011;22591;48.314;11.562;2022-11-15T15:34:05;11.38;;;9.70;;
36585;SDS011;22591;48.314;11.562;2022-11-15T15:36:31;12.65;;;10.00;;
36585;SDS011;22591;48.314;11.562;2022-11-15T15:38:57;15.63;;;12.52;;
36585;SDS011;22591;48.314;11.562;2022-11-15T15:41:22;16.83;;;13.70;;
36585;SDS011;22591;48.314;11.562;2022-11-15T15:43:48;14.13;;;12.73;;
36585;SDS011;22591;48.314;11.562;2022-11-15T15:46:14;14.07;;;12.65;;
36585;SDS011;22591;48.314;11.562;2022-11-15T15:48:41;13.70;;;12.38;;
36585;SDS011;22591;48.314;11.562;2022-11-15T15:51:07;15.40;;;12.60;;
36585;SDS011;22591;48.314;11.562;2022-11-15T15:53:33;16.17;;;13.57;;
36585;SDS011;22591;48.314;11.562;2022-11-15T15:55:59;13.77;;;12.43;;
36585;SDS011;22591;48.314;11.562;2022-11-15T15:58:24;14.65;;;13.25;;
36585;SDS011;22591;48.314;11.562;2022-11-15T16:00:50;18.23;;;15.45;;
36585;SDS011;22591;48.314;11.562;2022-11-15T16:03:16;18.35;;;16.45;;
36585;SDS011;22591;48.314;11.562;2022-11-15T16:05:41;20.75;;;17.20;;
36585;SDS011;22591;48.314;11.562;2022-11-15T16:08:40;19.35;;;16.58;;
36585;SDS011;22591;48.314;11.562;2022-11-15T16:10:59;16.73;;;14.88;;
36585;SDS011;22591;48.314;11.562;2022-11-15T16:13:24;20.00;;;16.33;;
36585;SDS011;22591;48.314;11.562;2022-11-15T16:15:51;17.63;;;15.70;;
36585;SDS011;22591;48.314;11.562;2022-11-15T16:18:19;19.98;;;16.60;;
36585;SDS011;22591;48.314;11.562;2022-11-15T16:20:45;21.92;;;19.63;;
36585;SDS011;22591;48.314;11.562;2022-11-15T16:23:15;23.20;;;20.83;;
36585;SDS011;22591;48.314;11.562;2022-11-15T16:25:52;17.40;;;15.60;;
36585;SDS011;22591;48.314;11.562;2022-11-15T16:28:27;16.52;;;14.80;;